Terminal Aerodrome Forecast
Issued by NWS

Home | Current Version | Previous Version | Text Only | Print | Product List | Glossary On
Versions: 1 2 3 4 5 6 7 8 9 10 11 12 13 14 15 16 17 18 19 20 21 22 23 24 25 26 27 28
000
FTUS45 KPSR 080520
TAFIWA
TAF
KIWA 080520Z 0806/0906 11004KT P6SM SCT250
     FM081900 30005KT P6SM FEW250
     FM090300 11005KT P6SM SKC
      AMD LTD TO CLD VIS AND WIND TIL 081300=

USA.gov is the U.S. government's official web portal to all federal, state and local government web resources and services.